createdAt,value
2019-01-16T00:00:47.405Z,72.31
2019-01-16T00:01:47.353Z,71.82
2019-01-16T00:02:47.325Z,71.92
2019-01-16T00:03:47.261Z,72.11
2019-01-16T00:04:47.219Z,71.72
2019-01-16T00:05:47.188Z,71.72
2019-01-16T00:06:47.141Z,72.02
2019-01-16T00:07:47.110Z,72.50
2019-01-16T00:08:47.071Z,73.18
2019-01-16T00:09:47.027Z,73.18
2019-01-16T00:10:46.963Z,73.57
2019-01-16T00:11:46.919Z,73.08
2019-01-16T00:12:46.877Z,73.08
2019-01-16T00:13:47.585Z,73.38
2019-01-16T00:14:46.804Z,72.80
2019-01-16T00:15:46.764Z,72.99
2019-01-16T00:16:46.728Z,72.89
2019-01-16T00:17:46.677Z,72.80
2019-01-16T00:18:46.630Z,73.57
2019-01-16T00:19:46.592Z,73.28
2019-01-16T00:20:46.537Z,73.67
2019-01-16T00:21:46.508Z,73.67
2019-01-16T00:22:46.474Z,73.96
2019-01-16T00:23:46.410Z,73.86
2019-01-16T00:24:46.393Z,73.96
2019-01-16T00:25:46.338Z,74.71
2019-01-16T00:26:46.282Z,75.29
2019-01-16T00:27:46.261Z,75.68
2019-01-16T00:28:46.199Z,76.03
2019-01-16T00:29:46.162Z,76.42
2019-01-16T00:30:46.121Z,76.81
2019-01-16T00:31:46.083Z,76.81
2019-01-16T00:32:46.028Z,76.81
2019-01-16T00:33:45.992Z,76.61
2019-01-16T00:34:45.951Z,77.00
2019-01-16T00:35:45.899Z,76.61
2019-01-16T00:36:45.878Z,76.55
2019-01-16T00:37:45.823Z,76.17
2019-01-16T00:38:45.981Z,76.45
2019-01-16T00:39:45.737Z,76.35
2019-01-16T00:40:45.695Z,76.45
2019-01-16T00:41:45.666Z,75.68
2019-01-16T00:42:45.602Z,76.07
2019-01-16T00:43:45.558Z,75.68
2019-01-16T00:44:45.539Z,75.97
2019-01-16T00:45:45.482Z,76.26
2019-01-16T00:46:45.449Z,76.35
2019-01-16T00:47:45.399Z,76.17
2019-01-16T00:48:45.347Z,76.17
2019-01-16T00:49:46.604Z,75.97
2019-01-16T00:50:45.283Z,75.38
2019-01-16T00:51:45.220Z,75.38
2019-01-16T00:52:45.176Z,76.17
2019-01-16T00:53:45.156Z,75.78
2019-01-16T00:54:45.099Z,75.58
2019-01-16T00:55:45.049Z,75.58
2019-01-16T00:56:45.007Z,75.09
2019-01-16T00:57:44.963Z,76.81
2019-01-16T00:58:44.938Z,76.71
2019-01-16T00:59:44.899Z,76.42
2019-01-16T01:00:44.860Z,76.81
2019-01-16T01:01:45.017Z,75.25
2019-01-16T01:02:44.758Z,74.67
2019-01-16T01:03:44.721Z,74.67
2019-01-16T01:04:44.678Z,74.38
2019-01-16T01:05:44.630Z,74.57
2019-01-16T01:06:44.587Z,74.12
2019-01-16T01:07:44.533Z,73.11
2019-01-16T01:08:44.514Z,73.60
2019-01-16T01:09:44.460Z,73.99
2019-01-16T01:10:44.416Z,74.54
2019-01-16T01:11:44.387Z,75.25
2019-01-16T01:12:44.332Z,75.12
2019-01-16T01:13:44.294Z,75.60
2019-01-16T01:14:44.251Z,75.70
2019-01-16T01:15:44.203Z,76.38
2019-01-16T01:16:44.165Z,75.51
2019-01-16T01:17:44.118Z,75.80
2019-01-16T01:18:44.089Z,76.97
2019-01-16T01:19:44.033Z,76.92
2019-01-16T01:20:43.995Z,76.64
2019-01-16T01:21:43.946Z,77.12
2019-01-16T01:22:43.907Z,76.97
2019-01-16T01:23:43.927Z,76.54
2019-01-16T01:24:43.809Z,76.83
2019-01-16T01:25:43.784Z,76.83
2019-01-16T01:26:43.737Z,76.92
2019-01-16T01:27:43.680Z,76.25
2019-01-16T01:28:43.637Z,76.89
2019-01-16T01:29:43.610Z,77.86
2019-01-16T01:30:43.575Z,78.05
2019-01-16T01:31:43.516Z,76.69
2019-01-16T01:32:43.485Z,76.60
2019-01-16T01:33:43.435Z,76.21
2019-01-16T01:34:43.384Z,76.21
2019-01-16T01:35:43.335Z,75.92
2019-01-16T01:36:43.317Z,76.60
2019-01-16T01:37:43.258Z,76.60
2019-01-16T01:38:43.214Z,76.65
2019-01-16T01:39:43.162Z,76.60
2019-01-16T01:40:43.118Z,76.69
2019-01-16T01:41:43.090Z,76.01
2019-01-16T01:42:43.026Z,75.82
2019-01-16T01:43:42.953Z,76.21
2019-01-16T01:44:42.929Z,75.72
2019-01-16T01:45:42.877Z,75.62
2019-01-16T01:46:42.821Z,75.43
2019-01-16T01:47:42.786Z,75.34
2019-01-16T01:48:42.755Z,74.07
2019-01-16T01:49:42.712Z,75.14
2019-01-16T01:50:42.670Z,75.24
2019-01-16T01:51:42.605Z,75.14
2019-01-16T01:52:42.575Z,75.14
2019-01-16T01:53:42.540Z,74.95
2019-01-16T01:54:42.485Z,75.67
2019-01-16T01:55:42.432Z,75.57
2019-01-16T01:56:42.399Z,75.37
2019-01-16T01:57:42.367Z,75.27
2019-01-16T01:58:42.318Z,75.37
2019-01-16T01:59:42.261Z,75.27
2019-01-16T02:00:42.220Z,75.47
2019-01-16T02:01:42.187Z,75.57
2019-01-16T02:02:42.131Z,76.21
2019-01-16T02:03:42.087Z,76.11
2019-01-16T02:04:42.057Z,75.72
2019-01-16T02:05:42.014Z,75.67
2019-01-16T02:06:41.961Z,74.85
2019-01-16T02:07:41.926Z,75.04
2019-01-16T02:08:41.874Z,74.37
2019-01-16T02:09:41.850Z,75.67
2019-01-16T02:10:41.798Z,74.69
2019-01-16T02:11:41.764Z,75.24
2019-01-16T02:12:41.708Z,75.04
2019-01-16T02:13:41.657Z,75.14
2019-01-16T02:14:41.627Z,75.59
2019-01-16T02:15:41.583Z,76.21
2019-01-16T02:16:41.541Z,76.31
2019-01-16T02:17:41.497Z,76.69
2019-01-16T02:18:47.338Z,76.69
2019-01-16T02:19:41.411Z,76.69
2019-01-16T02:20:41.355Z,77.04
2019-01-16T02:21:41.326Z,77.37
2019-01-16T02:22:41.282Z,77.28
2019-01-16T02:23:41.251Z,77.34
2019-01-16T02:24:41.196Z,77.28
2019-01-16T02:25:41.160Z,77.08
2019-01-16T02:26:41.109Z,76.40
2019-01-16T02:27:41.062Z,76.79
2019-01-16T02:28:41.019Z,77.43
2019-01-16T02:29:40.988Z,77.28
2019-01-16T02:30:40.946Z,76.69
2019-01-16T02:31:40.908Z,76.50
2019-01-16T02:32:40.846Z,77.08
2019-01-16T02:33:40.804Z,76.89
2019-01-16T02:34:40.759Z,76.21
2019-01-16T02:35:40.708Z,76.01
2019-01-16T02:36:40.687Z,75.43
2019-01-16T02:37:40.622Z,75.34
2019-01-16T02:38:40.591Z,74.95
2019-01-16T02:39:40.557Z,75.04
2019-01-16T02:40:40.516Z,75.04
2019-01-16T02:41:40.463Z,74.85
2019-01-16T02:42:40.427Z,74.95
2019-01-16T02:43:40.363Z,75.53
2019-01-16T02:44:40.342Z,76.79
2019-01-16T02:45:40.285Z,76.85
2019-01-16T02:46:40.235Z,77.14
2019-01-16T02:47:40.199Z,77.24
2019-01-16T02:48:40.156Z,77.24
2019-01-16T02:49:40.105Z,77.24
2019-01-16T02:50:40.083Z,77.53
2019-01-16T02:51:40.031Z,78.02
2019-01-16T02:52:39.975Z,78.11
2019-01-16T02:53:39.941Z,78.02
2019-01-16T02:54:39.889Z,77.72
2019-01-16T02:55:39.867Z,77.72
2019-01-16T02:56:39.803Z,77.34
2019-01-16T02:57:39.771Z,76.95
2019-01-16T02:58:39.739Z,77.82
2019-01-16T02:59:39.686Z,79.04
2019-01-16T03:00:39.641Z,79.43
2019-01-16T03:01:39.599Z,78.94
2019-01-16T03:02:39.555Z,79.14
2019-01-16T03:03:39.499Z,78.46
2019-01-16T03:04:39.477Z,78.11
2019-01-16T03:05:39.413Z,77.62
2019-01-16T03:06:39.391Z,77.72
2019-01-16T03:07:39.340Z,77.62
2019-01-16T03:08:39.307Z,77.62
2019-01-16T03:09:39.261Z,76.85
2019-01-16T03:10:39.227Z,77.34
2019-01-16T03:11:39.176Z,76.85
2019-01-16T03:12:39.135Z,76.95
2019-01-16T03:13:39.075Z,76.60
2019-01-16T03:14:39.044Z,76.89
2019-01-16T03:15:38.993Z,77.24
2019-01-16T03:16:38.945Z,78.02
2019-01-16T03:17:38.915Z,77.88
2019-01-16T03:18:38.850Z,79.04
2019-01-16T03:19:38.830Z,79.43
2019-01-16T03:20:38.773Z,79.24
2019-01-16T03:21:38.742Z,79.14
2019-01-16T03:22:38.687Z,79.53
2019-01-16T03:23:38.655Z,80.07
2019-01-16T03:24:38.599Z,79.82
2019-01-16T03:25:38.569Z,80.50
2019-01-16T03:26:38.503Z,81.18
2019-01-16T03:27:38.467Z,81.33
2019-01-16T03:28:38.428Z,81.82
2019-01-16T03:29:38.381Z,81.62
2019-01-16T03:30:38.331Z,81.47
2019-01-16T03:31:38.298Z,82.24
2019-01-16T03:32:38.255Z,81.62
2019-01-16T03:33:38.198Z,81.23
2019-01-16T03:34:38.155Z,81.18
2019-01-16T03:35:38.124Z,80.88
2019-01-16T03:36:38.080Z,80.36
2019-01-16T03:37:38.036Z,80.30
2019-01-16T03:38:37.993Z,81.23
2019-01-16T03:39:37.956Z,81.37
2019-01-16T03:40:37.904Z,83.85
2019-01-16T03:41:37.874Z,84.43
2019-01-16T03:42:37.803Z,85.11
2019-01-16T03:43:37.759Z,83.85
2019-01-16T03:44:37.716Z,83.95
2019-01-16T03:45:37.686Z,84.24
2019-01-16T03:46:37.655Z,83.27
2019-01-16T03:47:37.674Z,83.37
2019-01-16T03:48:37.541Z,82.88
2019-01-16T03:49:37.503Z,82.40
2019-01-16T03:50:37.452Z,82.40
2019-01-16T03:51:37.411Z,82.10
2019-01-16T03:52:37.378Z,82.20
2019-01-16T03:53:37.333Z,82.40
2019-01-16T03:54:37.290Z,82.20
2019-01-16T03:55:37.234Z,82.01
2019-01-16T03:56:37.197Z,82.10
2019-01-16T03:57:37.153Z,82.30
2019-01-16T03:58:37.117Z,83.37
2019-01-16T03:59:37.081Z,83.47
2019-01-16T04:00:37.036Z,83.47
2019-01-16T04:01:36.977Z,83.95
2019-01-16T04:02:36.947Z,83.85
2019-01-16T04:03:36.903Z,84.43
2019-01-16T04:04:36.845Z,84.43
2019-01-16T04:05:36.793Z,84.92
2019-01-16T04:06:36.771Z,85.07
2019-01-16T04:07:36.720Z,85.21
2019-01-16T04:08:36.683Z,85.21
2019-01-16T04:09:36.641Z,85.40
2019-01-16T04:10:36.596Z,84.63
2019-01-16T04:11:36.542Z,84.24
2019-01-16T04:12:36.485Z,84.24
2019-01-16T04:13:36.450Z,84.05
2019-01-16T04:14:36.410Z,83.17
2019-01-16T04:15:36.354Z,83.22
2019-01-16T04:16:36.318Z,82.88
2019-01-16T04:17:36.279Z,83.31
2019-01-16T04:18:36.282Z,82.59
2019-01-16T04:19:36.182Z,83.31
2019-01-16T04:20:36.142Z,82.69
2019-01-16T04:21:36.091Z,82.24
2019-01-16T04:22:36.047Z,82.92
2019-01-16T04:23:36.025Z,82.98
2019-01-16T04:24:35.973Z,83.47
2019-01-16T04:25:35.916Z,83.75
2019-01-16T04:26:35.880Z,84.14
2019-01-16T04:27:35.835Z,84.05
2019-01-16T04:28:35.796Z,84.14
2019-01-16T04:29:35.739Z,84.05
2019-01-16T04:30:35.695Z,83.85
2019-01-16T04:31:35.664Z,83.47
2019-01-16T04:32:35.629Z,83.65
2019-01-16T04:33:35.576Z,83.47
2019-01-16T04:34:35.527Z,83.37
2019-01-16T04:35:35.483Z,83.47
2019-01-16T04:36:35.434Z,83.95
2019-01-16T04:37:35.395Z,83.47
2019-01-16T04:38:35.344Z,83.37
2019-01-16T04:39:35.300Z,83.75
2019-01-16T04:40:35.256Z,84.14
2019-01-16T04:41:35.212Z,83.95
2019-01-16T04:42:35.173Z,84.00
2019-01-16T04:43:35.133Z,83.95
2019-01-16T04:44:35.080Z,84.05
2019-01-16T04:45:35.059Z,83.75
2019-01-16T04:46:35.013Z,83.85
2019-01-16T04:47:34.955Z,83.56
2019-01-16T04:48:34.926Z,83.27
2019-01-16T04:49:34.860Z,83.47
2019-01-16T04:50:34.816Z,83.85
2019-01-16T04:51:34.772Z,84.43
2019-01-16T04:52:34.740Z,85.27
2019-01-16T04:53:34.684Z,85.75
2019-01-16T04:54:34.641Z,85.65
2019-01-16T04:55:34.617Z,86.04
2019-01-16T04:56:34.574Z,85.85
2019-01-16T04:57:34.516Z,85.55
2019-01-16T04:58:34.463Z,85.27
2019-01-16T04:59:34.441Z,85.65
2019-01-16T05:00:34.383Z,85.46
2019-01-16T05:01:34.340Z,85.75
2019-01-16T05:02:34.295Z,85.55
2019-01-16T05:03:34.244Z,85.85
2019-01-16T05:04:34.207Z,86.23
2019-01-16T05:05:34.155Z,86.04
2019-01-16T05:06:34.118Z,85.85
2019-01-16T05:07:34.079Z,86.13
2019-01-16T05:08:34.043Z,85.85
2019-01-16T05:09:33.987Z,86.04
2019-01-16T05:10:33.953Z,85.94
2019-01-16T05:11:33.897Z,86.43
2019-01-16T05:12:33.861Z,86.52
2019-01-16T05:13:33.810Z,86.52
2019-01-16T05:14:33.758Z,86.82
2019-01-16T05:15:33.721Z,86.43
2019-01-16T05:16:33.684Z,87.30
2019-01-16T05:17:33.647Z,86.91
2019-01-16T05:18:33.581Z,86.52
2019-01-16T05:19:38.553Z,86.27
2019-01-16T05:20:33.515Z,86.52
2019-01-16T05:21:33.449Z,86.72
2019-01-16T05:22:33.413Z,87.10
2019-01-16T05:23:33.376Z,87.40
2019-01-16T05:24:33.330Z,88.37
2019-01-16T05:25:33.287Z,87.49
2019-01-16T05:26:33.268Z,87.01
2019-01-16T05:27:33.198Z,87.01
2019-01-16T05:28:33.141Z,87.68
2019-01-16T05:29:33.098Z,87.88
2019-01-16T05:30:33.053Z,87.05
2019-01-16T05:31:33.030Z,86.91
2019-01-16T05:32:32.965Z,86.76
2019-01-16T05:33:32.942Z,87.15
2019-01-16T05:34:32.877Z,87.05
2019-01-16T05:35:32.856Z,86.95
2019-01-16T05:36:32.810Z,87.15
2019-01-16T05:37:32.745Z,87.24
2019-01-16T05:38:32.700Z,87.92
2019-01-16T05:39:32.656Z,87.54
2019-01-16T05:40:32.622Z,88.02
2019-01-16T05:41:32.568Z,88.41
2019-01-16T05:42:32.537Z,88.75
2019-01-16T05:43:32.488Z,89.33
2019-01-16T05:44:32.458Z,89.53
2019-01-16T05:45:32.401Z,89.33
2019-01-16T05:46:32.363Z,89.33
2019-01-16T05:47:32.306Z,89.72
2019-01-16T05:48:32.260Z,89.62
2019-01-16T05:49:32.223Z,90.50
2019-01-16T05:50:32.179Z,89.72
2019-01-16T05:51:32.127Z,90.40
2019-01-16T05:52:32.104Z,90.01
2019-01-16T05:53:32.054Z,90.40
2019-01-16T05:54:32.010Z,90.88
2019-01-16T05:55:31.977Z,91.37
2019-01-16T05:56:31.919Z,91.08
2019-01-16T05:57:31.862Z,91.56
2019-01-16T05:58:31.827Z,91.56
2019-01-16T05:59:31.789Z,91.37
2019-01-16T06:00:31.743Z,91.95
2019-01-16T06:01:31.685Z,91.75
2019-01-16T06:02:31.641Z,92.33
2019-01-16T06:03:31.610Z,92.33
2019-01-16T06:04:31.553Z,92.53
2019-01-16T06:05:31.511Z,92.33
2019-01-16T06:06:31.472Z,93.02
2019-01-16T06:07:31.428Z,93.11
2019-01-16T06:08:31.398Z,93.30
2019-01-16T06:09:31.341Z,93.02
2019-01-16T06:10:31.288Z,93.11
2019-01-16T06:11:31.267Z,92.92
2019-01-16T06:12:31.214Z,93.11
2019-01-16T06:13:31.177Z,93.02
2019-01-16T06:14:31.119Z,92.63
2019-01-16T06:15:31.076Z,92.63
2019-01-16T06:16:31.044Z,92.63
2019-01-16T06:17:30.980Z,92.43
2019-01-16T06:18:30.947Z,92.48
2019-01-16T06:19:30.892Z,92.77
2019-01-16T06:20:30.868Z,92.19
2019-01-16T06:21:30.802Z,91.80
2019-01-16T06:22:30.784Z,92.67
2019-01-16T06:23:30.737Z,92.29
2019-01-16T06:24:30.692Z,92.33
2019-01-16T06:25:30.627Z,93.02
2019-01-16T06:26:30.604Z,92.92
2019-01-16T06:27:30.561Z,93.60
2019-01-16T06:28:30.494Z,93.60
2019-01-16T06:29:30.471Z,93.60
2019-01-16T06:30:30.427Z,93.60
2019-01-16T06:31:30.383Z,93.21
2019-01-16T06:32:30.329Z,93.79
2019-01-16T06:33:30.286Z,93.40
2019-01-16T06:34:30.242Z,93.40
2019-01-16T06:35:30.189Z,93.30
2019-01-16T06:36:30.142Z,93.21
2019-01-16T06:37:30.107Z,93.11
2019-01-16T06:38:30.063Z,94.08
2019-01-16T06:39:30.034Z,93.98
2019-01-16T06:40:29.986Z,93.88
2019-01-16T06:41:29.943Z,93.50
2019-01-16T06:42:29.891Z,92.63
2019-01-16T06:43:29.840Z,92.24
2019-01-16T06:44:30.860Z,92.33
2019-01-16T06:45:29.753Z,92.72
2019-01-16T06:46:29.721Z,92.63
2019-01-16T06:47:29.669Z,92.24
2019-01-16T06:48:29.619Z,92.43
2019-01-16T06:49:29.568Z,92.33
2019-01-16T06:50:29.545Z,92.33
2019-01-16T06:51:29.500Z,92.82
2019-01-16T06:52:29.436Z,92.24
2019-01-16T06:53:29.406Z,92.33
2019-01-16T06:54:29.347Z,92.43
2019-01-16T06:55:29.303Z,92.24
2019-01-16T06:56:29.280Z,92.43
2019-01-16T06:57:29.228Z,92.63
2019-01-16T06:58:29.184Z,92.53
2019-01-16T06:59:29.177Z,92.53
2019-01-16T07:00:29.103Z,92.33
2019-01-16T07:01:29.038Z,91.95
2019-01-16T07:02:29.015Z,92.77
2019-01-16T07:03:28.950Z,93.07
2019-01-16T07:04:28.906Z,93.26
2019-01-16T07:05:28.883Z,93.40
2019-01-16T07:06:28.905Z,93.94
2019-01-16T07:07:28.780Z,94.13
2019-01-16T07:08:28.736Z,94.42
2019-01-16T07:09:28.692Z,95.58
2019-01-16T07:10:28.661Z,95.78
2019-01-16T07:11:28.604Z,95.97
2019-01-16T07:12:28.573Z,96.55
2019-01-16T07:13:28.520Z,96.75
2019-01-16T07:14:28.476Z,96.65
2019-01-16T07:15:28.418Z,97.42
2019-01-16T07:16:28.396Z,97.81
2019-01-16T07:17:28.343Z,98.10
2019-01-16T07:18:28.300Z,97.71
2019-01-16T07:19:28.250Z,98.39
2019-01-16T07:20:28.197Z,98.20
2019-01-16T07:21:28.161Z,98.39
2019-01-16T07:22:28.121Z,98.39
2019-01-16T07:23:28.077Z,98.88
2019-01-16T07:24:28.033Z,98.39
2019-01-16T07:25:27.996Z,98.68
2019-01-16T07:26:27.952Z,99.36
2019-01-16T07:27:27.903Z,99.46
2019-01-16T07:28:27.850Z,99.75
2019-01-16T07:29:27.819Z,99.99
2019-01-16T07:30:27.754Z,99.99
2019-01-16T07:31:27.720Z,99.99
2019-01-16T07:32:27.672Z,99.99
2019-01-16T07:33:27.628Z,99.99
2019-01-16T07:34:27.589Z,99.99
2019-01-16T07:35:27.539Z,99.99
2019-01-16T07:36:27.501Z,99.99
2019-01-16T07:37:27.443Z,99.36
2019-01-16T07:38:27.420Z,99.99
2019-01-16T07:39:27.375Z,99.99
2019-01-16T07:40:27.318Z,99.99
2019-01-16T07:41:27.280Z,99.99
2019-01-16T07:42:27.229Z,99.99
2019-01-16T07:43:27.176Z,99.99
2019-01-16T07:44:27.137Z,99.99
2019-01-16T07:45:27.110Z,99.99
2019-01-16T07:46:27.057Z,99.99
2019-01-16T07:47:27.000Z,99.99
2019-01-16T07:48:26.968Z,99.99
2019-01-16T07:49:26.911Z,99.99
2019-01-16T07:50:26.867Z,99.99
2019-01-16T07:51:26.843Z,99.94
2019-01-16T07:52:26.791Z,99.99
2019-01-16T07:53:26.741Z,99.99
2019-01-16T07:54:26.702Z,99.99
2019-01-16T07:55:26.668Z,99.99
2019-01-16T07:56:26.621Z,99.99
2019-01-16T07:57:26.568Z,99.99
2019-01-16T07:58:26.531Z,99.99
2019-01-16T07:59:26.467Z,99.99
2019-01-16T08:00:26.444Z,99.99
2019-01-16T08:01:26.399Z,99.99
2019-01-16T08:02:26.347Z,99.99
2019-01-16T08:03:26.311Z,99.99
2019-01-16T08:04:26.254Z,99.99
2019-01-16T08:05:26.214Z,99.99
2019-01-16T08:06:26.177Z,99.99
2019-01-16T08:07:26.134Z,99.99
2019-01-16T08:08:26.067Z,99.99
2019-01-16T08:09:26.030Z,99.99
2019-01-16T08:10:25.978Z,99.99
2019-01-16T08:11:25.934Z,99.99
2019-01-16T08:12:25.897Z,99.99
2019-01-16T08:13:25.854Z,99.99
2019-01-16T08:14:25.801Z,99.99
2019-01-16T08:15:25.777Z,99.99
2019-01-16T08:16:25.719Z,99.99
2019-01-16T08:17:25.675Z,99.99
2019-01-16T08:18:25.623Z,99.99
2019-01-16T08:19:25.600Z,99.99
2019-01-16T08:20:25.553Z,99.99
2019-01-16T08:21:25.510Z,99.99
2019-01-16T08:22:25.445Z,99.99
2019-01-16T08:23:25.408Z,99.99
2019-01-16T08:24:25.377Z,99.99
2019-01-16T08:25:25.328Z,99.99
2019-01-16T08:26:25.291Z,99.99
2019-01-16T08:27:25.231Z,99.99
2019-01-16T08:28:25.199Z,99.99
2019-01-16T08:29:25.141Z,99.99
2019-01-16T08:30:25.089Z,99.99
2019-01-16T08:31:24.995Z,99.99
2019-01-16T08:32:25.008Z,99.99
2019-01-16T08:33:24.978Z,99.99
2019-01-16T08:34:24.927Z,99.99
2019-01-16T08:35:24.889Z,99.99
2019-01-16T08:36:24.836Z,99.99
2019-01-16T08:37:24.795Z,99.99
2019-01-16T08:38:24.747Z,99.99
2019-01-16T08:39:24.703Z,99.99
2019-01-16T08:40:24.645Z,99.99
2019-01-16T08:41:24.622Z,99.99
2019-01-16T08:42:24.572Z,99.99
2019-01-16T08:43:24.512Z,99.99
2019-01-16T08:44:24.481Z,99.99
2019-01-16T08:45:24.445Z,99.99
2019-01-16T08:46:24.387Z,99.99
2019-01-16T08:47:24.348Z,99.99
2019-01-16T08:48:24.303Z,99.99
2019-01-16T08:49:24.268Z,99.99
2019-01-16T08:50:24.209Z,99.99
2019-01-16T08:51:24.182Z,99.99
2019-01-16T08:52:24.126Z,99.99
2019-01-16T08:53:24.078Z,99.99
2019-01-16T08:54:24.046Z,99.99
2019-01-16T08:55:24.002Z,99.99
2019-01-16T08:56:23.949Z,99.99
2019-01-16T08:57:23.900Z,99.99
2019-01-16T08:58:23.860Z,99.99
2019-01-16T08:59:23.825Z,99.99
2019-01-16T09:00:23.771Z,99.99
2019-01-16T09:01:23.735Z,99.99
2019-01-16T09:02:23.682Z,99.99
2019-01-16T09:03:23.638Z,99.99
2019-01-16T09:04:23.593Z,99.99
2019-01-16T09:05:23.557Z,99.99
2019-01-16T09:06:23.506Z,99.99
2019-01-16T09:07:23.460Z,99.99
2019-01-16T09:08:23.411Z,99.99
2019-01-16T09:09:23.371Z,99.99
2019-01-16T09:10:23.322Z,99.99
2019-01-16T09:11:23.271Z,99.99
2019-01-16T09:12:23.238Z,99.99
2019-01-16T09:13:23.194Z,99.99
2019-01-16T09:14:23.157Z,99.99
2019-01-16T09:15:23.105Z,99.99
2019-01-16T09:16:23.102Z,99.99
2019-01-16T09:17:23.022Z,99.99
2019-01-16T09:18:22.959Z,99.99
2019-01-16T09:19:22.937Z,99.99
2019-01-16T09:20:22.873Z,99.46
2019-01-16T09:21:22.834Z,99.99
2019-01-16T09:22:22.803Z,99.99
2019-01-16T09:23:22.746Z,99.99
2019-01-16T09:24:22.703Z,99.99
2019-01-16T09:25:22.658Z,99.99
2019-01-16T09:26:22.626Z,99.99
2019-01-16T09:27:22.567Z,99.99
2019-01-16T09:28:22.515Z,99.99
2019-01-16T09:29:22.475Z,99.99
2019-01-16T09:30:22.427Z,99.99
2019-01-16T09:31:22.383Z,99.99
2019-01-16T09:32:22.351Z,99.99
2019-01-16T09:33:22.296Z,99.99
2019-01-16T09:34:22.256Z,99.99
2019-01-16T09:35:22.219Z,99.99
2019-01-16T09:36:22.170Z,99.99
2019-01-16T09:37:22.130Z,99.99
2019-01-16T09:38:22.096Z,99.99
2019-01-16T09:39:22.035Z,99.99
2019-01-16T09:40:21.995Z,99.99
2019-01-16T09:41:21.961Z,99.99
2019-01-16T09:42:21.903Z,99.99
2019-01-16T09:43:21.875Z,99.99
2019-01-16T09:44:21.815Z,99.99
2019-01-16T09:45:21.773Z,99.99
2019-01-16T09:46:21.725Z,99.99
2019-01-16T09:47:21.687Z,99.99
2019-01-16T09:48:21.638Z,99.99
2019-01-16T09:49:21.606Z,99.99
2019-01-16T09:50:21.555Z,99.99
2019-01-16T09:51:21.522Z,99.99
2019-01-16T09:52:21.463Z,99.99
2019-01-16T09:53:21.416Z,99.99
2019-01-16T09:54:21.394Z,99.99
2019-01-16T09:55:21.328Z,99.99
2019-01-16T09:56:21.292Z,99.99
2019-01-16T09:57:21.252Z,99.99
2019-01-16T09:58:21.190Z,99.99
2019-01-16T09:59:21.163Z,99.99
2019-01-16T10:00:21.098Z,99.99
2019-01-16T10:01:21.059Z,99.99
2019-01-16T10:02:21.018Z,99.99
2019-01-16T10:03:20.973Z,99.99
2019-01-16T10:04:20.928Z,99.99
2019-01-16T10:05:20.890Z,99.99
2019-01-16T10:06:20.833Z,99.99
2019-01-16T10:07:20.800Z,99.99
2019-01-16T10:08:20.753Z,99.99
2019-01-16T10:09:20.702Z,99.99
2019-01-16T10:10:20.665Z,99.99
2019-01-16T10:11:20.626Z,99.99
2019-01-16T10:12:20.581Z,99.99
2019-01-16T10:13:20.572Z,99.90
2019-01-16T10:14:20.487Z,99.51
2019-01-16T10:15:20.449Z,98.73
2019-01-16T10:16:20.414Z,98.63
2019-01-16T10:17:20.355Z,98.73
2019-01-16T10:18:20.310Z,97.67
2019-01-16T10:19:20.267Z,96.89
2019-01-16T10:20:20.215Z,96.31
2019-01-16T10:21:20.194Z,95.78
2019-01-16T10:22:20.139Z,95.53
2019-01-16T10:23:20.095Z,95.10
2019-01-16T10:24:20.058Z,94.90
2019-01-16T10:25:20.007Z,93.93
2019-01-16T10:26:19.951Z,93.84
2019-01-16T10:27:19.927Z,93.16
2019-01-16T10:28:19.866Z,94.27
2019-01-16T10:29:19.830Z,94.32
2019-01-16T10:30:19.776Z,93.16
2019-01-16T10:31:19.743Z,93.06
2019-01-16T10:32:19.708Z,92.96
2019-01-16T10:33:19.651Z,92.58
2019-01-16T10:34:19.608Z,92.38
2019-01-16T10:35:19.570Z,92.62
2019-01-16T10:36:19.617Z,92.48
2019-01-16T10:37:19.475Z,91.85
2019-01-16T10:38:19.424Z,90.97
2019-01-16T10:39:19.402Z,90.97
2019-01-16T10:40:19.344Z,90.44
2019-01-16T10:41:19.307Z,89.56
2019-01-16T10:42:19.270Z,88.98
2019-01-16T10:43:19.207Z,89.47
2019-01-16T10:44:19.226Z,88.83
2019-01-16T10:45:19.126Z,89.03
2019-01-16T10:46:19.083Z,89.03
2019-01-16T10:47:19.046Z,88.88
2019-01-16T10:48:18.994Z,88.40
2019-01-16T10:49:18.944Z,87.62
2019-01-16T10:50:18.922Z,87.82
2019-01-16T10:51:18.873Z,88.10
2019-01-16T10:52:18.837Z,87.72
2019-01-16T10:53:18.771Z,86.07
2019-01-16T10:54:18.745Z,87.13
2019-01-16T10:55:18.695Z,86.94
2019-01-16T10:56:18.655Z,88.20
2019-01-16T10:57:18.599Z,88.79
2019-01-16T10:58:18.578Z,88.01
2019-01-16T10:59:18.667Z,88.30
2019-01-16T11:00:18.495Z,87.62
2019-01-16T11:01:18.448Z,87.57
2019-01-16T11:02:18.392Z,87.52
2019-01-16T11:03:18.362Z,88.30
2019-01-16T11:04:18.478Z,87.57
2019-01-16T11:05:18.263Z,87.57
2019-01-16T11:06:18.217Z,87.37
2019-01-16T11:07:18.190Z,87.52
2019-01-16T11:08:18.141Z,87.82
2019-01-16T11:09:18.054Z,88.79
2019-01-16T11:10:18.051Z,88.79
2019-01-16T11:11:18.017Z,89.07
2019-01-16T11:12:17.975Z,87.52
2019-01-16T11:13:17.918Z,87.33
2019-01-16T11:14:17.879Z,87.76
2019-01-16T11:15:17.837Z,87.47
2019-01-16T11:16:17.805Z,87.08
2019-01-16T11:17:17.752Z,86.89
2019-01-16T11:18:17.716Z,85.72
2019-01-16T11:19:17.656Z,85.53
2019-01-16T11:20:17.621Z,84.94
2019-01-16T11:21:17.573Z,86.11
2019-01-16T11:22:17.539Z,86.89
2019-01-16T11:23:17.495Z,86.44
2019-01-16T11:24:17.461Z,85.96
2019-01-16T11:25:17.401Z,86.15
2019-01-16T11:26:17.350Z,85.67
2019-01-16T11:27:17.324Z,85.13
2019-01-16T11:28:18.549Z,84.74
2019-01-16T11:29:17.224Z,85.67
2019-01-16T11:30:17.186Z,84.93
2019-01-16T11:31:17.158Z,83.63
2019-01-16T11:32:17.116Z,84.89
2019-01-16T11:33:17.063Z,84.89
2019-01-16T11:34:17.015Z,85.42
2019-01-16T11:35:16.977Z,84.74
2019-01-16T11:36:16.922Z,83.96
2019-01-16T11:37:16.901Z,83.28
2019-01-16T11:38:16.838Z,82.99
2019-01-16T11:39:16.793Z,82.89
2019-01-16T11:40:16.751Z,82.70
2019-01-16T11:41:16.723Z,83.86
2019-01-16T11:42:16.686Z,83.57
2019-01-16T11:43:16.631Z,82.93
2019-01-16T11:44:16.596Z,81.86
2019-01-16T11:45:16.548Z,81.76
2019-01-16T11:46:16.503Z,81.76
2019-01-16T11:47:16.460Z,81.18
2019-01-16T11:48:16.418Z,81.96
2019-01-16T11:49:16.382Z,81.86
2019-01-16T11:50:16.325Z,81.09
2019-01-16T11:51:18.969Z,80.60
2019-01-16T11:52:16.261Z,81.22
2019-01-16T11:53:16.198Z,79.96
2019-01-16T11:54:16.168Z,79.28
2019-01-16T11:55:16.134Z,78.92
2019-01-16T11:56:16.073Z,76.45
2019-01-16T11:57:16.028Z,77.27
2019-01-16T11:58:16.010Z,76.68
2019-01-16T11:59:16.034Z,76.50
2019-01-16T12:00:15.924Z,76.01
2019-01-16T12:01:15.882Z,76.30
2019-01-16T12:02:15.840Z,75.13
2019-01-16T12:03:15.783Z,76.04
2019-01-16T12:04:15.769Z,76.68
2019-01-16T12:05:15.704Z,77.27
2019-01-16T12:06:15.650Z,78.01
2019-01-16T12:07:15.620Z,76.55
2019-01-16T12:08:15.581Z,76.45
2019-01-16T12:09:15.536Z,76.94
2019-01-16T12:10:15.502Z,76.20
2019-01-16T12:11:15.452Z,74.84
2019-01-16T12:12:15.405Z,75.19
2019-01-16T12:13:15.366Z,75.38
2019-01-16T12:14:15.476Z,76.55
2019-01-16T12:15:15.472Z,75.62
2019-01-16T12:16:15.237Z,76.30
2019-01-16T12:17:15.200Z,76.30
2019-01-16T12:18:15.157Z,76.50
2019-01-16T12:19:15.110Z,76.59
2019-01-16T12:20:15.064Z,75.36
2019-01-16T12:21:15.088Z,75.36
2019-01-16T12:22:14.989Z,74.87
2019-01-16T12:23:14.948Z,76.34
2019-01-16T12:24:14.918Z,73.74
2019-01-16T12:25:14.858Z,72.67
2019-01-16T12:26:14.817Z,72.38
2019-01-16T12:27:14.790Z,74.04
2019-01-16T12:28:14.745Z,73.55
2019-01-16T12:29:14.691Z,74.23
2019-01-16T12:30:14.663Z,72.28
2019-01-16T12:31:14.625Z,72.41
2019-01-16T12:32:14.572Z,71.92
2019-01-16T12:33:14.549Z,71.15
2019-01-16T12:34:14.476Z,70.37
2019-01-16T12:35:14.453Z,70.47
2019-01-16T12:36:14.400Z,70.76
2019-01-16T12:37:14.350Z,71.15
2019-01-16T12:38:14.321Z,70.76
2019-01-16T12:39:14.288Z,70.89
2019-01-16T12:40:14.232Z,69.92
2019-01-16T12:41:14.197Z,70.01
2019-01-16T12:42:14.169Z,70.04
2019-01-16T12:43:14.123Z,68.59
2019-01-16T12:44:14.097Z,69.65
2019-01-16T12:45:14.064Z,69.82
2019-01-16T12:46:14.032Z,68.35
2019-01-16T12:47:13.964Z,68.68
2019-01-16T12:48:13.907Z,69.95
2019-01-16T12:49:13.883Z,68.68
2019-01-16T12:50:13.828Z,67.61
2019-01-16T12:51:13.807Z,67.64
2019-01-16T12:52:13.742Z,67.35